sensor_id;sensor_type;location;lat;lon;timestamp;temperature;humidity
67147;DHT22;70072;52.036;5.558;2024-02-26T00:00:22;17.70;68.10
67147;DHT22;70072;52.036;5.558;2024-02-26T00:02:48;17.60;68.10
67147;DHT22;70072;52.036;5.558;2024-02-26T00:05:14;17.60;68.10
67147;DHT22;70072;52.036;5.558;2024-02-26T00:07:39;17.70;68.10
67147;DHT22;70072;52.036;5.558;2024-02-26T00:10:10;17.70;68.10
67147;DHT22;70072;52.036;5.558;2024-02-26T00:12:36;17.70;68.20
67147;DHT22;70072;52.036;5.558;2024-02-26T00:15:10;17.70;68.20
67147;DHT22;70072;52.036;5.558;2024-02-26T00:17:36;17.60;68.10
67147;DHT22;70072;52.036;5.558;2024-02-26T00:20:04;17.70;68.20
67147;DHT22;70072;52.036;5.558;2024-02-26T00:22:35;17.60;68.10
67147;DHT22;70072;52.036;5.558;2024-02-26T00:25:01;17.60;68.10
67147;DHT22;70072;52.036;5.558;2024-02-26T00:27:27;17.60;68.20
67147;DHT22;70072;52.036;5.558;2024-02-26T00:29:52;17.60;68.10
67147;DHT22;70072;52.036;5.558;2024-02-26T00:32:18;17.60;68.70
67147;DHT22;70072;52.036;5.558;2024-02-26T00:34:44;17.60;68.10
67147;DHT22;70072;52.036;5.558;2024-02-26T00:37:09;17.60;68.10
67147;DHT22;70072;52.036;5.558;2024-02-26T00:39:35;17.60;68.10
67147;DHT22;70072;52.036;5.558;2024-02-26T00:42:00;17.60;68.10
67147;DHT22;70072;52.036;5.558;2024-02-26T00:44:26;17.60;68.10
67147;DHT22;70072;52.036;5.558;2024-02-26T00:46:52;17.60;68.10
67147;DHT22;70072;52.036;5.558;2024-02-26T00:49:17;17.60;68.10
67147;DHT22;70072;52.036;5.558;2024-02-26T00:51:45;17.60;68.10
67147;DHT22;70072;52.036;5.558;2024-02-26T00:54:11;17.60;68.10
67147;DHT22;70072;52.036;5.558;2024-02-26T00:56:37;17.60;68.10
67147;DHT22;70072;52.036;5.558;2024-02-26T00:59:04;17.60;68.10
67147;DHT22;70072;52.036;5.558;2024-02-26T01:01:30;17.60;68.10
67147;DHT22;70072;52.036;5.558;2024-02-26T01:03:55;17.60;68.10
67147;DHT22;70072;52.036;5.558;2024-02-26T01:06:21;17.60;68.10
67147;DHT22;70072;52.036;5.558;2024-02-26T01:08:47;17.60;68.10
67147;DHT22;70072;52.036;5.558;2024-02-26T01:11:13;17.60;68.10
67147;DHT22;70072;52.036;5.558;2024-02-26T01:13:39;17.60;68.10
67147;DHT22;70072;52.036;5.558;2024-02-26T01:16:04;17.60;68.10
67147;DHT22;70072;52.036;5.558;2024-02-26T01:18:30;17.60;68.10
67147;DHT22;70072;52.036;5.558;2024-02-26T01:20:58;17.60;68.10
67147;DHT22;70072;52.036;5.558;2024-02-26T01:23:24;17.60;68.10
67147;DHT22;70072;52.036;5.558;2024-02-26T01:25:52;17.60;68.10
67147;DHT22;70072;52.036;5.558;2024-02-26T01:28:19;17.60;68.10
67147;DHT22;70072;52.036;5.558;2024-02-26T01:30:45;17.50;68.00
67147;DHT22;70072;52.036;5.558;2024-02-26T01:33:13;17.50;68.10
67147;DHT22;70072;52.036;5.558;2024-02-26T01:35:39;17.60;68.80
67147;DHT22;70072;52.036;5.558;2024-02-26T01:38:07;17.60;68.10
67147;DHT22;70072;52.036;5.558;2024-02-26T01:40:32;17.60;68.10
67147;DHT22;70072;52.036;5.558;2024-02-26T01:42:59;17.60;68.10
67147;DHT22;70072;52.036;5.558;2024-02-26T01:45:27;17.60;68.10
67147;DHT22;70072;52.036;5.558;2024-02-26T01:47:54;17.60;68.10
67147;DHT22;70072;52.036;5.558;2024-02-26T01:50:21;17.60;68.10
67147;DHT22;70072;52.036;5.558;2024-02-26T01:52:49;17.60;68.10
67147;DHT22;70072;52.036;5.558;2024-02-26T01:55:18;17.60;68.10
67147;DHT22;70072;52.036;5.558;2024-02-26T01:57:45;17.60;68.10
67147;DHT22;70072;52.036;5.558;2024-02-26T02:00:12;17.50;68.10
67147;DHT22;70072;52.036;5.558;2024-02-26T02:02:42;17.50;68.00
67147;DHT22;70072;52.036;5.558;2024-02-26T02:05:11;17.60;68.10
67147;DHT22;70072;52.036;5.558;2024-02-26T02:07:40;17.50;68.10
67147;DHT22;70072;52.036;5.558;2024-02-26T02:10:07;17.50;68.00
67147;DHT22;70072;52.036;5.558;2024-02-26T02:12:33;17.50;68.10
67147;DHT22;70072;52.036;5.558;2024-02-26T02:15:00;17.60;68.10
67147;DHT22;70072;52.036;5.558;2024-02-26T02:17:27;17.50;68.00
67147;DHT22;70072;52.036;5.558;2024-02-26T02:19:53;17.50;68.00
67147;DHT22;70072;52.036;5.558;2024-02-26T02:22:19;17.50;68.10
67147;DHT22;70072;52.036;5.558;2024-02-26T02:24:45;17.50;68.00
67147;DHT22;70072;52.036;5.558;2024-02-26T02:27:11;17.50;68.00
67147;DHT22;70072;52.036;5.558;2024-02-26T02:29:39;17.50;68.00
67147;DHT22;70072;52.036;5.558;2024-02-26T02:32:08;17.50;68.00
67147;DHT22;70072;52.036;5.558;2024-02-26T02:34:34;17.50;67.90
67147;DHT22;70072;52.036;5.558;2024-02-26T02:37:00;17.50;68.00
67147;DHT22;70072;52.036;5.558;2024-02-26T02:39:26;17.50;68.00
67147;DHT22;70072;52.036;5.558;2024-02-26T02:41:51;17.50;68.00
67147;DHT22;70072;52.036;5.558;2024-02-26T02:44:17;17.50;68.00
67147;DHT22;70072;52.036;5.558;2024-02-26T02:46:43;17.50;68.00
67147;DHT22;70072;52.036;5.558;2024-02-26T02:49:09;17.50;67.90
67147;DHT22;70072;52.036;5.558;2024-02-26T02:51:36;17.50;68.00
67147;DHT22;70072;52.036;5.558;2024-02-26T02:54:02;17.50;68.00
67147;DHT22;70072;52.036;5.558;2024-02-26T02:56:30;17.50;67.90
67147;DHT22;70072;52.036;5.558;2024-02-26T02:58:58;17.50;67.90
67147;DHT22;70072;52.036;5.558;2024-02-26T03:01:23;17.50;67.90
67147;DHT22;70072;52.036;5.558;2024-02-26T03:03:49;17.50;67.90
67147;DHT22;70072;52.036;5.558;2024-02-26T03:06:16;17.50;68.60
67147;DHT22;70072;52.036;5.558;2024-02-26T03:08:42;17.50;68.00
67147;DHT22;70072;52.036;5.558;2024-02-26T03:11:12;17.50;68.00
67147;DHT22;70072;52.036;5.558;2024-02-26T03:13:38;17.50;68.00
67147;DHT22;70072;52.036;5.558;2024-02-26T03:16:06;17.50;67.90
67147;DHT22;70072;52.036;5.558;2024-02-26T03:18:32;17.50;67.90
67147;DHT22;70072;52.036;5.558;2024-02-26T03:21:00;17.40;67.90
67147;DHT22;70072;52.036;5.558;2024-02-26T03:23:26;17.50;67.90
67147;DHT22;70072;52.036;5.558;2024-02-26T03:25:51;17.40;67.90
67147;DHT22;70072;52.036;5.558;2024-02-26T03:28:17;17.50;67.90
67147;DHT22;70072;52.036;5.558;2024-02-26T03:30:43;17.50;68.00
67147;DHT22;70072;52.036;5.558;2024-02-26T03:33:09;17.40;67.90
67147;DHT22;70072;52.036;5.558;2024-02-26T03:35:34;17.40;67.90
67147;DHT22;70072;52.036;5.558;2024-02-26T03:38:02;17.50;67.90
67147;DHT22;70072;52.036;5.558;2024-02-26T03:40:28;17.50;67.90
67147;DHT22;70072;52.036;5.558;2024-02-26T03:42:54;17.40;67.90
67147;DHT22;70072;52.036;5.558;2024-02-26T03:45:19;17.40;67.90
67147;DHT22;70072;52.036;5.558;2024-02-26T03:47:45;17.50;67.90
67147;DHT22;70072;52.036;5.558;2024-02-26T03:50:13;17.50;67.90
67147;DHT22;70072;52.036;5.558;2024-02-26T03:52:41;17.40;67.90
67147;DHT22;70072;52.036;5.558;2024-02-26T03:55:08;17.40;67.90
67147;DHT22;70072;52.036;5.558;2024-02-26T03:57:35;17.40;67.80
67147;DHT22;70072;52.036;5.558;2024-02-26T04:00:01;17.40;67.90
67147;DHT22;70072;52.036;5.558;2024-02-26T04:02:29;17.40;67.90
67147;DHT22;70072;52.036;5.558;2024-02-26T04:04:54;17.40;67.90
67147;DHT22;70072;52.036;5.558;2024-02-26T04:07:20;17.40;67.90
67147;DHT22;70072;52.036;5.558;2024-02-26T04:09:46;17.40;67.90
67147;DHT22;70072;52.036;5.558;2024-02-26T04:12:11;17.40;67.80
67147;DHT22;70072;52.036;5.558;2024-02-26T04:14:37;17.40;67.80
67147;DHT22;70072;52.036;5.558;2024-02-26T04:17:03;17.40;67.90
67147;DHT22;70072;52.036;5.558;2024-02-26T04:19:31;17.40;67.80
67147;DHT22;70072;52.036;5.558;2024-02-26T04:21:56;17.40;67.80
67147;DHT22;70072;52.036;5.558;2024-02-26T04:24:24;17.40;67.80
67147;DHT22;70072;52.036;5.558;2024-02-26T04:26:52;17.40;67.80
67147;DHT22;70072;52.036;5.558;2024-02-26T04:29:20;17.40;67.80
67147;DHT22;70072;52.036;5.558;2024-02-26T04:31:46;17.40;67.80
67147;DHT22;70072;52.036;5.558;2024-02-26T04:34:12;17.40;67.80
67147;DHT22;70072;52.036;5.558;2024-02-26T04:36:40;17.40;67.80
67147;DHT22;70072;52.036;5.558;2024-02-26T04:39:11;17.40;67.80
67147;DHT22;70072;52.036;5.558;2024-02-26T04:41:39;17.40;67.80
67147;DHT22;70072;52.036;5.558;2024-02-26T04:44:05;17.40;67.80
67147;DHT22;70072;52.036;5.558;2024-02-26T04:46:31;17.40;67.80
67147;DHT22;70072;52.036;5.558;2024-02-26T04:49:00;17.40;67.80
67147;DHT22;70072;52.036;5.558;2024-02-26T04:51:25;17.40;67.80
67147;DHT22;70072;52.036;5.558;2024-02-26T04:53:53;17.40;67.80
67147;DHT22;70072;52.036;5.558;2024-02-26T04:56:21;17.40;67.80
67147;DHT22;70072;52.036;5.558;2024-02-26T04:58:47;17.40;67.80
67147;DHT22;70072;52.036;5.558;2024-02-26T05:01:13;17.40;67.80
67147;DHT22;70072;52.036;5.558;2024-02-26T05:03:42;17.40;67.80
67147;DHT22;70072;52.036;5.558;2024-02-26T05:06:08;17.40;67.80
67147;DHT22;70072;52.036;5.558;2024-02-26T05:08:34;17.40;67.80
67147;DHT22;70072;52.036;5.558;2024-02-26T05:11:02;17.40;67.80
67147;DHT22;70072;52.036;5.558;2024-02-26T05:13:31;17.40;67.80
67147;DHT22;70072;52.036;5.558;2024-02-26T05:15:57;17.40;67.80
67147;DHT22;70072;52.036;5.558;2024-02-26T05:18:25;17.40;67.80
67147;DHT22;70072;52.036;5.558;2024-02-26T05:20:50;17.30;67.70
67147;DHT22;70072;52.036;5.558;2024-02-26T05:23:16;17.40;67.80
67147;DHT22;70072;52.036;5.558;2024-02-26T05:25:41;17.40;67.80
67147;DHT22;70072;52.036;5.558;2024-02-26T05:28:07;17.40;67.80
67147;DHT22;70072;52.036;5.558;2024-02-26T05:30:33;17.40;67.80
67147;DHT22;70072;52.036;5.558;2024-02-26T05:32:59;17.30;67.70
67147;DHT22;70072;52.036;5.558;2024-02-26T05:35:25;17.40;67.80
67147;DHT22;70072;52.036;5.558;2024-02-26T05:37:53;17.40;67.80
67147;DHT22;70072;52.036;5.558;2024-02-26T05:40:19;17.40;67.70
67147;DHT22;70072;52.036;5.558;2024-02-26T05:42:45;17.40;67.80
67147;DHT22;70072;52.036;5.558;2024-02-26T05:45:10;17.40;67.80
67147;DHT22;70072;52.036;5.558;2024-02-26T05:47:36;17.30;67.70
67147;DHT22;70072;52.036;5.558;2024-02-26T05:50:10;17.30;67.70
67147;DHT22;70072;52.036;5.558;2024-02-26T05:52:39;17.30;67.70
67147;DHT22;70072;52.036;5.558;2024-02-26T05:55:06;17.30;67.70
67147;DHT22;70072;52.036;5.558;2024-02-26T05:57:32;17.30;67.70
67147;DHT22;70072;52.036;5.558;2024-02-26T06:00:01;17.30;67.70
67147;DHT22;70072;52.036;5.558;2024-02-26T06:02:32;17.30;68.30
67147;DHT22;70072;52.036;5.558;2024-02-26T06:04:58;17.30;67.70
67147;DHT22;70072;52.036;5.558;2024-02-26T06:07:24;17.30;67.70
67147;DHT22;70072;52.036;5.558;2024-02-26T06:09:50;17.30;67.70
67147;DHT22;70072;52.036;5.558;2024-02-26T06:12:16;17.30;67.60
67147;DHT22;70072;52.036;5.558;2024-02-26T06:14:44;17.30;67.70
67147;DHT22;70072;52.036;5.558;2024-02-26T06:17:12;17.30;67.80
67147;DHT22;70072;52.036;5.558;2024-02-26T06:19:38;17.30;67.60
67147;DHT22;70072;52.036;5.558;2024-02-26T06:22:04;17.30;67.60
67147;DHT22;70072;52.036;5.558;2024-02-26T06:24:29;17.30;67.60
67147;DHT22;70072;52.036;5.558;2024-02-26T06:26:55;17.30;67.60
67147;DHT22;70072;52.036;5.558;2024-02-26T06:29:20;17.30;67.60
67147;DHT22;70072;52.036;5.558;2024-02-26T06:31:46;17.30;67.60
67147;DHT22;70072;52.036;5.558;2024-02-26T06:34:16;17.30;67.60
67147;DHT22;70072;52.036;5.558;2024-02-26T06:36:41;17.30;67.60
67147;DHT22;70072;52.036;5.558;2024-02-26T06:39:07;17.30;67.60
67147;DHT22;70072;52.036;5.558;2024-02-26T06:41:33;17.30;67.60
67147;DHT22;70072;52.036;5.558;2024-02-26T06:43:59;17.30;67.60
67147;DHT22;70072;52.036;5.558;2024-02-26T06:46:24;17.30;67.60
67147;DHT22;70072;52.036;5.558;2024-02-26T06:48:51;17.30;67.60
67147;DHT22;70072;52.036;5.558;2024-02-26T06:51:17;17.30;67.60
67147;DHT22;70072;52.036;5.558;2024-02-26T06:53:43;17.30;67.60
67147;DHT22;70072;52.036;5.558;2024-02-26T06:56:08;17.30;67.60
67147;DHT22;70072;52.036;5.558;2024-02-26T06:58:34;17.30;67.60
67147;DHT22;70072;52.036;5.558;2024-02-26T07:01:00;17.30;67.60
67147;DHT22;70072;52.036;5.558;2024-02-26T07:03:25;17.30;67.60
67147;DHT22;70072;52.036;5.558;2024-02-26T07:05:51;17.30;67.50
67147;DHT22;70072;52.036;5.558;2024-02-26T07:08:17;17.30;67.60
67147;DHT22;70072;52.036;5.558;2024-02-26T07:10:43;17.30;67.50
67147;DHT22;70072;52.036;5.558;2024-02-26T07:13:11;17.30;67.50
67147;DHT22;70072;52.036;5.558;2024-02-26T07:15:39;17.30;67.50
67147;DHT22;70072;52.036;5.558;2024-02-26T07:18:05;17.30;67.50
67147;DHT22;70072;52.036;5.558;2024-02-26T07:20:31;17.30;68.20
67147;DHT22;70072;52.036;5.558;2024-02-26T07:22:57;17.30;67.60
67147;DHT22;70072;52.036;5.558;2024-02-26T07:25:23;17.30;67.60
67147;DHT22;70072;52.036;5.558;2024-02-26T07:27:51;17.30;67.60
67147;DHT22;70072;52.036;5.558;2024-02-26T07:30:17;17.30;67.60
67147;DHT22;70072;52.036;5.558;2024-02-26T07:32:43;17.30;67.60
67147;DHT22;70072;52.036;5.558;2024-02-26T07:35:12;17.30;67.60
67147;DHT22;70072;52.036;5.558;2024-02-26T07:37:38;17.30;67.60
67147;DHT22;70072;52.036;5.558;2024-02-26T07:40:04;17.30;67.60
67147;DHT22;70072;52.036;5.558;2024-02-26T07:42:31;17.30;67.60
67147;DHT22;70072;52.036;5.558;2024-02-26T07:44:56;17.30;67.70
67147;DHT22;70072;52.036;5.558;2024-02-26T07:47:22;17.30;67.60
67147;DHT22;70072;52.036;5.558;2024-02-26T07:49:48;17.30;67.60
67147;DHT22;70072;52.036;5.558;2024-02-26T07:52:14;17.30;67.70
67147;DHT22;70072;52.036;5.558;2024-02-26T07:54:39;17.30;67.70
67147;DHT22;70072;52.036;5.558;2024-02-26T07:57:07;17.30;67.70
67147;DHT22;70072;52.036;5.558;2024-02-26T07:59:33;17.30;67.70
67147;DHT22;70072;52.036;5.558;2024-02-26T08:01:59;17.30;67.70
67147;DHT22;70072;52.036;5.558;2024-02-26T08:04:30;17.30;67.70
67147;DHT22;70072;52.036;5.558;2024-02-26T08:06:58;17.30;67.70
67147;DHT22;70072;52.036;5.558;2024-02-26T08:09:26;17.30;67.70
67147;DHT22;70072;52.036;5.558;2024-02-26T08:11:52;17.30;67.70
67147;DHT22;70072;52.036;5.558;2024-02-26T08:14:19;17.30;67.70
67147;DHT22;70072;52.036;5.558;2024-02-26T08:16:49;17.30;67.70
67147;DHT22;70072;52.036;5.558;2024-02-26T08:19:14;17.30;67.70
67147;DHT22;70072;52.036;5.558;2024-02-26T08:21:40;17.30;67.60
67147;DHT22;70072;52.036;5.558;2024-02-26T08:24:06;17.30;67.70
67147;DHT22;70072;52.036;5.558;2024-02-26T08:26:32;17.30;67.60
67147;DHT22;70072;52.036;5.558;2024-02-26T08:28:58;17.30;67.60
67147;DHT22;70072;52.036;5.558;2024-02-26T08:31:24;17.30;67.60
67147;DHT22;70072;52.036;5.558;2024-02-26T08:33:49;17.30;67.60
67147;DHT22;70072;52.036;5.558;2024-02-26T08:36:15;17.30;67.60
67147;DHT22;70072;52.036;5.558;2024-02-26T08:38:41;17.30;67.60
67147;DHT22;70072;52.036;5.558;2024-02-26T08:41:06;17.30;67.60
67147;DHT22;70072;52.036;5.558;2024-02-26T08:43:32;17.30;67.60
67147;DHT22;70072;52.036;5.558;2024-02-26T08:45:58;17.30;67.60
67147;DHT22;70072;52.036;5.558;2024-02-26T08:48:24;17.30;67.60
67147;DHT22;70072;52.036;5.558;2024-02-26T08:50:49;17.40;67.70
67147;DHT22;70072;52.036;5.558;2024-02-26T08:53:15;17.30;67.60
67147;DHT22;70072;52.036;5.558;2024-02-26T08:55:43;17.30;67.60
67147;DHT22;70072;52.036;5.558;2024-02-26T08:58:08;17.40;67.70
67147;DHT22;70072;52.036;5.558;2024-02-26T09:00:34;17.40;67.60
67147;DHT22;70072;52.036;5.558;2024-02-26T09:02:59;17.40;67.60
67147;DHT22;70072;52.036;5.558;2024-02-26T09:05:27;17.30;67.60
67147;DHT22;70072;52.036;5.558;2024-02-26T09:07:55;17.30;67.60
67147;DHT22;70072;52.036;5.558;2024-02-26T09:10:21;17.40;67.60
67147;DHT22;70072;52.036;5.558;2024-02-26T09:12:47;17.30;68.20
67147;DHT22;70072;52.036;5.558;2024-02-26T09:15:13;17.40;67.60
67147;DHT22;70072;52.036;5.558;2024-02-26T09:17:38;17.40;67.60
67147;DHT22;70072;52.036;5.558;2024-02-26T09:20:05;17.40;67.60
67147;DHT22;70072;52.036;5.558;2024-02-26T09:22:31;17.30;67.50
67147;DHT22;70072;52.036;5.558;2024-02-26T09:24:57;17.40;67.60
67147;DHT22;70072;52.036;5.558;2024-02-26T09:27:22;17.40;67.60
67147;DHT22;70072;52.036;5.558;2024-02-26T09:29:52;17.40;67.50
67147;DHT22;70072;52.036;5.558;2024-02-26T09:32:18;17.30;67.50
67147;DHT22;70072;52.036;5.558;2024-02-26T09:34:44;17.40;67.50
67147;DHT22;70072;52.036;5.558;2024-02-26T09:37:09;17.30;67.50
67147;DHT22;70072;52.036;5.558;2024-02-26T09:39:35;17.40;67.50
67147;DHT22;70072;52.036;5.558;2024-02-26T09:42:07;17.40;67.70
67147;DHT22;70072;52.036;5.558;2024-02-26T09:44:40;17.40;67.50
67147;DHT22;70072;52.036;5.558;2024-02-26T09:47:09;17.40;67.50
67147;DHT22;70072;52.036;5.558;2024-02-26T09:49:36;17.40;67.50
67147;DHT22;70072;52.036;5.558;2024-02-26T09:52:08;17.40;67.40
67147;DHT22;70072;52.036;5.558;2024-02-26T09:54:35;17.40;67.40
67147;DHT22;70072;52.036;5.558;2024-02-26T09:57:02;17.40;67.40
67147;DHT22;70072;52.036;5.558;2024-02-26T09:59:29;17.40;67.40
67147;DHT22;70072;52.036;5.558;2024-02-26T10:02:00;17.40;67.40
67147;DHT22;70072;52.036;5.558;2024-02-26T10:04:26;17.40;67.40
67147;DHT22;70072;52.036;5.558;2024-02-26T10:06:55;17.40;67.40
67147;DHT22;70072;52.036;5.558;2024-02-26T10:09:21;17.40;67.40
67147;DHT22;70072;52.036;5.558;2024-02-26T10:11:48;17.40;67.40
67147;DHT22;70072;52.036;5.558;2024-02-26T10:14:14;17.40;67.40
67147;DHT22;70072;52.036;5.558;2024-02-26T10:16:41;17.40;67.30
67147;DHT22;70072;52.036;5.558;2024-02-26T10:19:07;17.40;67.30
67147;DHT22;70072;52.036;5.558;2024-02-26T10:21:33;17.40;67.30
67147;DHT22;70072;52.036;5.558;2024-02-26T10:23:58;17.40;67.30
67147;DHT22;70072;52.036;5.558;2024-02-26T10:26:24;17.40;67.30
67147;DHT22;70072;52.036;5.558;2024-02-26T10:28:50;17.40;67.30
67147;DHT22;70072;52.036;5.558;2024-02-26T10:31:16;17.40;67.30
67147;DHT22;70072;52.036;5.558;2024-02-26T10:33:43;17.40;67.90
67147;DHT22;70072;52.036;5.558;2024-02-26T10:36:09;17.40;67.30
67147;DHT22;70072;52.036;5.558;2024-02-26T10:38:38;17.40;67.30
67147;DHT22;70072;52.036;5.558;2024-02-26T10:41:07;17.40;67.30
67147;DHT22;70072;52.036;5.558;2024-02-26T10:43:33;17.40;67.30
67147;DHT22;70072;52.036;5.558;2024-02-26T10:45:59;17.40;67.30
67147;DHT22;70072;52.036;5.558;2024-02-26T10:48:25;17.40;67.30
67147;DHT22;70072;52.036;5.558;2024-02-26T10:50:51;17.50;67.30
67147;DHT22;70072;52.036;5.558;2024-02-26T10:53:20;17.40;67.20
67147;DHT22;70072;52.036;5.558;2024-02-26T10:55:54;17.50;67.30
67147;DHT22;70072;52.036;5.558;2024-02-26T10:58:23;17.40;67.20
67147;DHT22;70072;52.036;5.558;2024-02-26T11:00:51;17.40;67.20
67147;DHT22;70072;52.036;5.558;2024-02-26T11:03:18;17.40;67.20
67147;DHT22;70072;52.036;5.558;2024-02-26T11:05:47;17.40;67.20
67147;DHT22;70072;52.036;5.558;2024-02-26T11:08:14;17.40;67.20
67147;DHT22;70072;52.036;5.558;2024-02-26T11:10:41;17.40;67.30
67147;DHT22;70072;52.036;5.558;2024-02-26T11:13:09;17.40;67.20
67147;DHT22;70072;52.036;5.558;2024-02-26T11:15:37;17.40;67.20
67147;DHT22;70072;52.036;5.558;2024-02-26T11:18:06;17.50;67.20
67147;DHT22;70072;52.036;5.558;2024-02-26T11:20:35;17.50;67.20
67147;DHT22;70072;52.036;5.558;2024-02-26T11:23:04;17.40;67.20
67147;DHT22;70072;52.036;5.558;2024-02-26T11:25:29;17.40;67.20
67147;DHT22;70072;52.036;5.558;2024-02-26T11:27:59;17.40;67.20
67147;DHT22;70072;52.036;5.558;2024-02-26T11:30:30;17.50;67.20
67147;DHT22;70072;52.036;5.558;2024-02-26T11:32:57;17.40;67.20
67147;DHT22;70072;52.036;5.558;2024-02-26T11:35:23;17.40;67.10
67147;DHT22;70072;52.036;5.558;2024-02-26T11:37:56;17.50;67.20
67147;DHT22;70072;52.036;5.558;2024-02-26T11:40:25;17.50;67.20
67147;DHT22;70072;52.036;5.558;2024-02-26T11:42:51;17.40;67.10
67147;DHT22;70072;52.036;5.558;2024-02-26T11:48:12;17.40;67.10
67147;DHT22;70072;52.036;5.558;2024-02-26T11:50:42;17.40;67.10
67147;DHT22;70072;52.036;5.558;2024-02-26T11:53:25;17.40;67.20
67147;DHT22;70072;52.036;5.558;2024-02-26T11:56:16;17.50;67.10
67147;DHT22;70072;52.036;5.558;2024-02-26T11:58:47;17.50;67.10
67147;DHT22;70072;52.036;5.558;2024-02-26T12:01:50;17.40;67.10
67147;DHT22;70072;52.036;5.558;2024-02-26T12:04:24;17.50;67.10
67147;DHT22;70072;52.036;5.558;2024-02-26T12:07:01;17.40;67.00
67147;DHT22;70072;52.036;5.558;2024-02-26T12:09:30;17.40;67.10
67147;DHT22;70072;52.036;5.558;2024-02-26T12:11:56;17.40;67.00
67147;DHT22;70072;52.036;5.558;2024-02-26T12:14:25;17.40;67.10
67147;DHT22;70072;52.036;5.558;2024-02-26T12:16:51;17.40;67.00
67147;DHT22;70072;52.036;5.558;2024-02-26T12:19:22;17.40;67.10
67147;DHT22;70072;52.036;5.558;2024-02-26T12:21:53;17.40;67.00
67147;DHT22;70072;52.036;5.558;2024-02-26T12:24:22;17.40;67.10
67147;DHT22;70072;52.036;5.558;2024-02-26T12:26:48;17.40;67.70
67147;DHT22;70072;52.036;5.558;2024-02-26T12:29:14;17.50;67.10
67147;DHT22;70072;52.036;5.558;2024-02-26T12:31:40;17.50;67.10
67147;DHT22;70072;52.036;5.558;2024-02-26T12:34:06;17.50;67.10
67147;DHT22;70072;52.036;5.558;2024-02-26T12:36:35;17.50;67.10
67147;DHT22;70072;52.036;5.558;2024-02-26T12:39:04;17.50;67.70
67147;DHT22;70072;52.036;5.558;2024-02-26T12:41:33;17.50;67.10
67147;DHT22;70072;52.036;5.558;2024-02-26T12:44:00;17.50;67.10
67147;DHT22;70072;52.036;5.558;2024-02-26T12:46:26;17.40;67.80
67147;DHT22;70072;52.036;5.558;2024-02-26T12:48:51;17.40;67.10
67147;DHT22;70072;52.036;5.558;2024-02-26T12:51:17;17.50;67.20
67147;DHT22;70072;52.036;5.558;2024-02-26T12:53:45;17.50;67.20
67147;DHT22;70072;52.036;5.558;2024-02-26T12:56:11;17.50;67.20
67147;DHT22;70072;52.036;5.558;2024-02-26T12:58:40;17.50;67.10
67147;DHT22;70072;52.036;5.558;2024-02-26T13:01:06;17.50;67.10
67147;DHT22;70072;52.036;5.558;2024-02-26T13:03:36;17.50;67.20
67147;DHT22;70072;52.036;5.558;2024-02-26T13:06:02;17.50;67.10
67147;DHT22;70072;52.036;5.558;2024-02-26T13:08:28;17.50;67.10
67147;DHT22;70072;52.036;5.558;2024-02-26T13:10:56;17.50;67.10
67147;DHT22;70072;52.036;5.558;2024-02-26T13:13:22;17.50;67.10
67147;DHT22;70072;52.036;5.558;2024-02-26T13:15:48;17.50;67.10
67147;DHT22;70072;52.036;5.558;2024-02-26T13:18:16;17.50;67.10
67147;DHT22;70072;52.036;5.558;2024-02-26T13:20:41;17.50;67.10
67147;DHT22;70072;52.036;5.558;2024-02-26T13:23:11;17.50;67.10
67147;DHT22;70072;52.036;5.558;2024-02-26T13:25:37;17.50;67.10
67147;DHT22;70072;52.036;5.558;2024-02-26T13:28:19;17.50;67.10
67147;DHT22;70072;52.036;5.558;2024-02-26T13:33:28;17.50;67.10
67147;DHT22;70072;52.036;5.558;2024-02-26T13:35:55;17.60;67.20
67147;DHT22;70072;52.036;5.558;2024-02-26T13:38:22;17.50;67.10
67147;DHT22;70072;52.036;5.558;2024-02-26T13:40:47;17.60;67.20
67147;DHT22;70072;52.036;5.558;2024-02-26T13:43:16;17.50;67.10
67147;DHT22;70072;52.036;5.558;2024-02-26T13:45:41;17.60;67.20
67147;DHT22;70072;52.036;5.558;2024-02-26T13:48:08;17.50;67.10
67147;DHT22;70072;52.036;5.558;2024-02-26T13:50:40;17.60;67.20
67147;DHT22;70072;52.036;5.558;2024-02-26T13:53:06;17.50;67.10
67147;DHT22;70072;52.036;5.558;2024-02-26T13:55:32;17.60;67.20
67147;DHT22;70072;52.036;5.558;2024-02-26T13:57:59;17.60;67.20
67147;DHT22;70072;52.036;5.558;2024-02-26T14:00:29;17.60;67.20
67147;DHT22;70072;52.036;5.558;2024-02-26T14:02:59;17.50;67.10
67147;DHT22;70072;52.036;5.558;2024-02-26T14:05:27;17.60;67.20
67147;DHT22;70072;52.036;5.558;2024-02-26T14:07:53;17.60;67.10
67147;DHT22;70072;52.036;5.558;2024-02-26T14:10:20;17.50;67.10
67147;DHT22;70072;52.036;5.558;2024-02-26T14:12:48;17.60;67.10
67147;DHT22;70072;52.036;5.558;2024-02-26T14:15:16;17.60;67.10
67147;DHT22;70072;52.036;5.558;2024-02-26T14:17:42;17.60;67.10
67147;DHT22;70072;52.036;5.558;2024-02-26T14:20:08;17.60;67.10
67147;DHT22;70072;52.036;5.558;2024-02-26T14:22:34;17.60;67.10
67147;DHT22;70072;52.036;5.558;2024-02-26T14:25:00;17.60;67.10
67147;DHT22;70072;52.036;5.558;2024-02-26T14:27:25;17.60;67.10
67147;DHT22;70072;52.036;5.558;2024-02-26T14:29:51;17.60;67.10
67147;DHT22;70072;52.036;5.558;2024-02-26T14:32:17;17.60;67.10
67147;DHT22;70072;52.036;5.558;2024-02-26T14:34:43;17.60;67.10
67147;DHT22;70072;52.036;5.558;2024-02-26T14:37:08;17.60;67.10
67147;DHT22;70072;52.036;5.558;2024-02-26T14:39:34;17.60;67.10
67147;DHT22;70072;52.036;5.558;2024-02-26T14:42:00;17.60;67.10
67147;DHT22;70072;52.036;5.558;2024-02-26T14:44:26;17.60;67.10
67147;DHT22;70072;52.036;5.558;2024-02-26T14:46:52;17.60;67.10
67147;DHT22;70072;52.036;5.558;2024-02-26T14:49:18;17.60;67.10
67147;DHT22;70072;52.036;5.558;2024-02-26T14:51:44;17.60;67.10
67147;DHT22;70072;52.036;5.558;2024-02-26T14:54:13;17.60;67.10
67147;DHT22;70072;52.036;5.558;2024-02-26T14:56:40;17.60;67.10
67147;DHT22;70072;52.036;5.558;2024-02-26T14:59:06;17.60;67.10
67147;DHT22;70072;52.036;5.558;2024-02-26T15:01:32;17.60;67.10
67147;DHT22;70072;52.036;5.558;2024-02-26T15:03:58;17.60;67.10
67147;DHT22;70072;52.036;5.558;2024-02-26T15:06:24;17.60;67.10
67147;DHT22;70072;52.036;5.558;2024-02-26T15:08:50;17.50;67.10
67147;DHT22;70072;52.036;5.558;2024-02-26T15:11:18;17.60;67.10
67147;DHT22;70072;52.036;5.558;2024-02-26T15:13:44;17.50;67.10
67147;DHT22;70072;52.036;5.558;2024-02-26T15:16:17;17.50;67.10
67147;DHT22;70072;52.036;5.558;2024-02-26T15:18:48;17.60;67.20
67147;DHT22;70072;52.036;5.558;2024-02-26T15:21:13;17.60;67.10
67147;DHT22;70072;52.036;5.558;2024-02-26T15:23:42;17.50;67.10
67147;DHT22;70072;52.036;5.558;2024-02-26T15:26:12;17.60;67.10
67147;DHT22;70072;52.036;5.558;2024-02-26T15:28:38;17.50;67.10
67147;DHT22;70072;52.036;5.558;2024-02-26T15:31:05;17.60;67.10
67147;DHT22;70072;52.036;5.558;2024-02-26T15:33:30;17.60;67.10